createdAt,value
2022-10-23T00:00:12.384Z,492.1
2022-10-23T00:01:14.113Z,492.7
2022-10-23T00:02:16.076Z,492.9
2022-10-23T00:03:17.666Z,492.7
2022-10-23T00:04:19.372Z,493.4
2022-10-23T00:05:21.245Z,493.5
2022-10-23T00:06:22.813Z,492.9
2022-10-23T00:07:24.850Z,492.8
2022-10-23T00:08:26.747Z,493.1
2022-10-23T00:09:28.297Z,493.6
2022-10-23T00:10:30.061Z,493.7
2022-10-23T00:11:32.490Z,494.1
2022-10-23T00:12:34.372Z,494.2
2022-10-23T00:13:36.087Z,493.7
2022-10-23T00:14:37.718Z,493.6
2022-10-23T00:15:39.686Z,493.6
2022-10-23T00:16:41.313Z,493.2
2022-10-23T00:17:44.404Z,493.9
2022-10-23T00:18:46.185Z,494
2022-10-23T00:19:47.919Z,494
2022-10-23T00:20:49.638Z,494.6
2022-10-23T00:21:51.430Z,494
2022-10-23T00:22:52.986Z,493.7
2022-10-23T00:23:54.697Z,493.4
2022-10-23T00:24:56.474Z,493.7
2022-10-23T00:25:58.012Z,493.6
2022-10-23T00:26:59.656Z,493.8
2022-10-23T00:28:01.182Z,494.2
2022-10-23T00:29:03.240Z,495.2
2022-10-23T00:30:04.972Z,496.1
2022-10-23T00:31:06.613Z,496.1
2022-10-23T00:32:08.185Z,496.6
2022-10-23T00:33:09.714Z,496.4
2022-10-23T00:34:11.354Z,495.6
2022-10-23T00:35:13.008Z,495
2022-10-23T00:36:14.863Z,494.5
2022-10-23T00:37:16.511Z,494.7
2022-10-23T00:38:18.068Z,494.6
2022-10-23T00:39:19.608Z,494.4
2022-10-23T00:40:21.241Z,494.3
2022-10-23T00:41:22.963Z,493.7
2022-10-23T00:42:24.509Z,494
2022-10-23T00:43:26.173Z,493.7
2022-10-23T00:44:27.832Z,493.9
2022-10-23T00:45:29.468Z,494.2
2022-10-23T00:46:31.126Z,494
2022-10-23T00:47:32.733Z,494.3
2022-10-23T00:48:34.277Z,494.8
2022-10-23T00:49:43.186Z,495
2022-10-23T00:50:44.956Z,495.4
2022-10-23T00:51:46.684Z,495.1
2022-10-23T00:52:48.313Z,495.2
2022-10-23T00:54:25.506Z,495.4
2022-10-23T00:55:27.357Z,495.3
2022-10-23T00:56:29.045Z,495.2
2022-10-23T00:57:30.855Z,494.8
2022-10-23T00:58:32.528Z,495.2
2022-10-23T00:59:34.174Z,495.1
2022-10-23T01:00:35.704Z,495.4
2022-10-23T01:01:38.017Z,495.5
2022-10-23T01:02:41.065Z,495.1
2022-10-23T01:03:43.014Z,495.7
2022-10-23T01:04:44.586Z,496.1
2022-10-23T01:05:49.351Z,496.1
2022-10-23T01:06:51.210Z,495.1
2022-10-23T01:07:52.970Z,494
2022-10-23T01:08:54.604Z,492.5
2022-10-23T01:09:56.201Z,491.5
2022-10-23T01:10:57.742Z,491.8
2022-10-23T01:11:59.275Z,492.7
2022-10-23T01:13:00.863Z,493.7
2022-10-23T01:15:05.176Z,494.2
2022-10-23T01:16:06.754Z,493.3
2022-10-23T01:17:08.480Z,492.1
2022-10-23T01:18:10.322Z,491.9
2022-10-23T01:19:11.882Z,491.1
2022-10-23T01:20:13.624Z,491.1
2022-10-23T01:21:15.162Z,490.3
2022-10-23T01:22:17.156Z,489.9
2022-10-23T01:23:18.993Z,489.9
2022-10-23T01:24:20.575Z,489.5
2022-10-23T01:25:22.206Z,488.5
2022-10-23T01:26:23.824Z,488.3
2022-10-23T01:27:25.351Z,488.5
2022-10-23T01:28:26.997Z,488.8
2022-10-23T01:29:28.516Z,488.8
2022-10-23T01:30:30.740Z,488.2
2022-10-23T01:31:32.493Z,488.3
2022-10-23T01:32:34.029Z,488.5
2022-10-23T01:33:35.796Z,488.8
2022-10-23T01:34:37.670Z,488.6
2022-10-23T01:35:39.239Z,488
2022-10-23T01:36:40.890Z,487.8
2022-10-23T01:37:42.719Z,487.5
2022-10-23T01:38:44.325Z,487.7
2022-10-23T01:39:46.029Z,487.4
2022-10-23T01:40:47.591Z,486.9
2022-10-23T01:41:49.118Z,486.4
2022-10-23T01:42:50.717Z,486.2
2022-10-23T01:43:52.254Z,486.4
2022-10-23T01:44:53.941Z,486.6
2022-10-23T01:45:55.578Z,486.9
2022-10-23T01:46:57.111Z,486.5
2022-10-23T01:47:58.732Z,486.6
2022-10-23T01:49:00.353Z,486.9
2022-10-23T01:50:02.022Z,487.3
2022-10-23T01:51:03.753Z,486.9
2022-10-23T01:52:05.434Z,486.3
2022-10-23T01:53:07.293Z,486.6
2022-10-23T01:54:08.891Z,486.8
2022-10-23T01:55:10.754Z,487
2022-10-23T01:56:12.404Z,487.1
2022-10-23T01:57:13.937Z,487.5
2022-10-23T01:58:15.477Z,488.4
2022-10-23T01:59:17.027Z,488.9
2022-10-23T02:00:18.670Z,489.2
2022-10-23T02:01:20.970Z,488.9
2022-10-23T02:02:23.114Z,489.1
2022-10-23T02:03:24.781Z,489.1
2022-10-23T02:04:26.323Z,488.8
2022-10-23T02:05:27.957Z,488.9
2022-10-23T02:06:29.684Z,488.5
2022-10-23T02:07:31.351Z,487.6
2022-10-23T02:08:33.199Z,487.6
2022-10-23T02:09:34.860Z,487.4
2022-10-23T02:10:36.499Z,487.5
2022-10-23T02:11:38.247Z,487.9
2022-10-23T02:12:40.061Z,488
2022-10-23T02:13:41.809Z,487.6
2022-10-23T02:14:43.353Z,487.6
2022-10-23T02:15:45.007Z,487.7
2022-10-23T02:16:46.565Z,487.7
2022-10-23T02:17:48.111Z,487.7
2022-10-23T02:18:49.707Z,488
2022-10-23T02:19:51.235Z,488.2
2022-10-23T02:20:52.849Z,488.2
2022-10-23T02:21:54.487Z,488.2
2022-10-23T02:22:56.131Z,488.1
2022-10-23T02:23:57.975Z,488.3
2022-10-23T02:24:59.614Z,488.4
2022-10-23T02:26:01.362Z,488.9
2022-10-23T02:27:03.038Z,488.2
2022-10-23T02:28:04.663Z,488.5
2022-10-23T02:30:07.824Z,488.4
2022-10-23T02:31:09.361Z,488.2
2022-10-23T02:32:11.112Z,487.4
2022-10-23T02:33:12.696Z,487.4
2022-10-23T02:34:14.288Z,487.5
2022-10-23T02:35:15.847Z,487.5
2022-10-23T02:36:17.507Z,487.7
2022-10-23T02:37:19.441Z,488
2022-10-23T02:38:20.972Z,487.1
2022-10-23T02:39:22.757Z,486.9
2022-10-23T02:40:24.354Z,486.6
2022-10-23T02:41:26.028Z,486.5
2022-10-23T02:42:27.652Z,486
2022-10-23T02:43:29.348Z,486.2
2022-10-23T02:44:30.994Z,486.2
2022-10-23T02:45:32.949Z,485.6
2022-10-23T02:46:34.544Z,485.4
2022-10-23T02:47:36.086Z,485.9
2022-10-23T02:48:37.627Z,486.2
2022-10-23T02:49:39.192Z,486
2022-10-23T02:50:40.977Z,485.6
2022-10-23T02:51:42.700Z,485.8
2022-10-23T02:52:44.247Z,485.8
2022-10-23T02:53:46.135Z,485.9
2022-10-23T02:54:48.060Z,486.3
2022-10-23T02:55:49.811Z,486.4
2022-10-23T02:56:51.334Z,486.5
2022-10-23T02:57:52.967Z,486.9
2022-10-23T02:58:54.608Z,487.2
2022-10-23T02:59:56.118Z,487.1
2022-10-23T03:00:57.914Z,487.2
2022-10-23T03:02:00.241Z,486.9
2022-10-23T03:03:02.215Z,486.9
2022-10-23T03:04:04.094Z,487.3
2022-10-23T03:05:05.802Z,487.1
2022-10-23T03:06:07.504Z,486.7
2022-10-23T03:07:09.045Z,486
2022-10-23T03:08:10.575Z,485.9
2022-10-23T03:09:12.226Z,485.5
2022-10-23T03:10:14.036Z,485.4
2022-10-23T03:11:15.816Z,485.6
2022-10-23T03:12:17.343Z,484.7
2022-10-23T03:13:18.969Z,484.7
2022-10-23T03:14:20.502Z,484.3
2022-10-23T03:15:22.040Z,484.6
2022-10-23T03:16:23.744Z,484.2
2022-10-23T03:17:25.332Z,484.3
2022-10-23T03:18:27.098Z,484.1
2022-10-23T03:19:28.863Z,483.8
2022-10-23T03:20:33.665Z,483.8
2022-10-23T03:21:35.349Z,483.5
2022-10-23T03:22:37.080Z,483.5
2022-10-23T03:23:41.203Z,483.5
2022-10-23T03:24:42.836Z,483.3
2022-10-23T03:25:45.192Z,483.2
2022-10-23T03:26:46.788Z,483.2
2022-10-23T03:27:48.485Z,483.4
2022-10-23T03:28:50.137Z,483.2
2022-10-23T03:29:51.787Z,483.2
2022-10-23T03:30:53.373Z,483.2
2022-10-23T03:31:54.916Z,483.4
2022-10-23T03:32:56.493Z,483.6
2022-10-23T03:33:58.196Z,483.7
2022-10-23T03:34:59.998Z,484
2022-10-23T03:36:01.531Z,483.5
2022-10-23T03:37:03.260Z,483.7
2022-10-23T03:38:04.906Z,483.5
2022-10-23T03:39:06.491Z,483.8
2022-10-23T03:40:08.128Z,483.7
2022-10-23T03:41:09.971Z,483.9
2022-10-23T03:42:11.568Z,483.5
2022-10-23T03:43:13.235Z,483.2
2022-10-23T03:44:14.813Z,483.5
2022-10-23T03:45:16.454Z,483.1
2022-10-23T03:46:18.068Z,483
2022-10-23T03:47:19.709Z,483.1
2022-10-23T03:48:21.360Z,483.2
2022-10-23T03:49:22.905Z,483.2
2022-10-23T03:50:24.455Z,482.8
2022-10-23T03:51:26.123Z,483
2022-10-23T03:52:27.831Z,482.8
2022-10-23T03:53:29.368Z,482.9
2022-10-23T03:54:30.908Z,482.8
2022-10-23T03:55:32.496Z,482.7
2022-10-23T03:56:34.340Z,482.6
2022-10-23T03:57:35.899Z,482.4
2022-10-23T03:58:37.436Z,482.8
2022-10-23T03:59:39.042Z,483
2022-10-23T04:00:41.098Z,482.8
2022-10-23T04:01:43.297Z,482.7
2022-10-23T04:02:46.722Z,482.7
2022-10-23T04:03:48.678Z,482.3
2022-10-23T04:04:50.270Z,482.4
2022-10-23T04:05:52.837Z,481.8
2022-10-23T04:06:54.863Z,481.8
2022-10-23T04:07:56.711Z,481.6
2022-10-23T04:08:58.811Z,481.7
2022-10-23T04:10:00.620Z,481.7
2022-10-23T04:11:02.233Z,481.5
2022-10-23T04:12:04.211Z,481.3
2022-10-23T04:13:05.833Z,481.1
2022-10-23T04:14:07.505Z,481.1
2022-10-23T04:15:09.051Z,481.2
2022-10-23T04:16:10.590Z,481.2
2022-10-23T04:17:12.240Z,481
2022-10-23T04:18:13.790Z,480.6
2022-10-23T04:19:15.466Z,480.8
2022-10-23T04:20:17.101Z,480.5
2022-10-23T04:21:18.649Z,480.3
2022-10-23T04:22:28.758Z,480.3
2022-10-23T04:23:30.432Z,480.4
2022-10-23T04:24:32.081Z,480.3
2022-10-23T04:25:33.691Z,480
2022-10-23T04:26:35.335Z,480
2022-10-23T04:27:37.108Z,480.4
2022-10-23T04:28:38.701Z,480.2
2022-10-23T04:29:40.506Z,479.9
2022-10-23T04:30:42.255Z,480
2022-10-23T04:31:43.872Z,479.7
2022-10-23T04:32:45.419Z,480.2
2022-10-23T04:33:47.031Z,480.3
2022-10-23T04:34:48.805Z,480.3
2022-10-23T04:35:50.348Z,480.6
2022-10-23T04:36:51.893Z,480.4
2022-10-23T04:37:53.536Z,480.2
2022-10-23T04:38:55.100Z,480.4
2022-10-23T04:39:56.642Z,480.5
2022-10-23T04:40:58.265Z,480.2
2022-10-23T04:41:59.936Z,480.8
2022-10-23T04:43:01.788Z,480.4
2022-10-23T04:44:03.393Z,480.6
2022-10-23T04:45:05.257Z,480.8
2022-10-23T04:46:06.903Z,480.8
2022-10-23T04:47:08.589Z,480.9
2022-10-23T04:48:10.100Z,480.6
2022-10-23T04:49:11.647Z,480.4
2022-10-23T04:50:13.296Z,480.2
2022-10-23T04:51:14.957Z,480.1
2022-10-23T04:52:16.594Z,480
2022-10-23T04:53:18.139Z,480.2
2022-10-23T04:54:19.984Z,480
2022-10-23T04:55:21.621Z,480.1
2022-10-23T04:56:23.262Z,479.7
2022-10-23T04:57:24.944Z,479.5
2022-10-23T04:58:26.773Z,479.9
2022-10-23T04:59:28.381Z,479.9
2022-10-23T05:00:30.566Z,479.9
2022-10-23T05:01:32.920Z,480
2022-10-23T05:02:34.589Z,479.6
2022-10-23T05:03:36.416Z,479.7
2022-10-23T05:04:38.034Z,479.4
2022-10-23T05:05:39.585Z,479.5
2022-10-23T05:06:41.142Z,479.4
2022-10-23T05:07:44.142Z,478.9
2022-10-23T05:08:46.080Z,479.6
2022-10-23T05:09:47.608Z,479.7
2022-10-23T05:10:49.152Z,479.5
2022-10-23T05:11:50.796Z,479.9
2022-10-23T05:12:52.440Z,479.8
2022-10-23T05:13:54.215Z,479.6
2022-10-23T05:14:55.969Z,479.8
2022-10-23T05:15:57.502Z,479.5
2022-10-23T05:16:59.101Z,479.2
2022-10-23T05:18:00.647Z,479.3
2022-10-23T05:19:02.192Z,479.3
2022-10-23T05:20:03.894Z,479.3
2022-10-23T05:21:05.617Z,479.1
2022-10-23T05:22:07.348Z,478.8
2022-10-23T05:23:09.101Z,478.8
2022-10-23T05:24:10.786Z,478.8
2022-10-23T05:25:12.490Z,478.8
2022-10-23T05:26:14.182Z,478.9
2022-10-23T05:27:15.710Z,478.9
2022-10-23T05:28:17.393Z,479.1
2022-10-23T05:29:19.201Z,478.8
2022-10-23T05:30:20.965Z,478.9
2022-10-23T05:31:22.497Z,478.9
2022-10-23T05:32:24.232Z,479.1
2022-10-23T05:33:25.831Z,478.5
2022-10-23T05:34:27.537Z,478
2022-10-23T05:35:29.185Z,477.9
2022-10-23T05:36:30.794Z,477.8
2022-10-23T05:37:32.478Z,477.7
2022-10-23T05:38:34.489Z,477.5
2022-10-23T05:39:36.045Z,477.3
2022-10-23T05:40:40.595Z,476.5
2022-10-23T05:41:42.226Z,476.6
2022-10-23T05:42:45.698Z,476.1
2022-10-23T05:43:47.545Z,476
2022-10-23T05:44:49.378Z,475.5
2022-10-23T05:45:51.006Z,475.3
2022-10-23T05:46:52.601Z,474.7
2022-10-23T05:48:33.846Z,474.6
2022-10-23T05:49:35.943Z,475
2022-10-23T05:50:37.579Z,474.7
2022-10-23T05:51:39.318Z,474.1
2022-10-23T05:52:42.429Z,474.7
2022-10-23T05:53:44.396Z,473.9
2022-10-23T05:54:46.099Z,474.1
2022-10-23T05:55:47.753Z,473.8
2022-10-23T05:56:49.459Z,473.5
2022-10-23T05:57:51.232Z,473.4
2022-10-23T05:58:52.775Z,473.9
2022-10-23T05:59:54.628Z,473.3
2022-10-23T06:00:56.784Z,473.8
2022-10-23T06:01:59.339Z,473.8
2022-10-23T06:03:00.938Z,473.6
2022-10-23T06:04:02.618Z,473.8
2022-10-23T06:05:04.173Z,473.1
2022-10-23T06:06:05.950Z,473
2022-10-23T06:07:07.489Z,472.7
2022-10-23T06:08:09.025Z,472.6
2022-10-23T06:09:10.716Z,472.4
2022-10-23T06:10:12.419Z,472.4
2022-10-23T06:11:14.064Z,472.5
2022-10-23T06:12:15.791Z,472.3
2022-10-23T06:13:17.646Z,472.1
2022-10-23T06:14:19.307Z,472.2
2022-10-23T06:15:21.145Z,472.6
2022-10-23T06:16:22.773Z,472
2022-10-23T06:17:24.316Z,472.1
2022-10-23T06:18:26.074Z,472.1
2022-10-23T06:19:27.617Z,471.8
2022-10-23T06:20:29.668Z,472.1
2022-10-23T06:21:31.297Z,471.9
2022-10-23T06:22:32.859Z,472.2
2022-10-23T06:23:34.612Z,472.2
2022-10-23T06:24:36.149Z,471.9
2022-10-23T06:25:37.792Z,472
2022-10-23T06:26:39.529Z,472.4
2022-10-23T06:27:41.141Z,472.5
2022-10-23T06:28:42.921Z,472.8
2022-10-23T06:29:44.539Z,472.9
2022-10-23T06:30:46.337Z,473.2
2022-10-23T06:31:47.935Z,473.3
2022-10-23T06:32:49.841Z,473.1
2022-10-23T06:33:51.477Z,473.2
2022-10-23T06:34:53.127Z,473.1
2022-10-23T06:35:54.771Z,473.1
2022-10-23T06:36:56.310Z,472.8
2022-10-23T06:37:57.841Z,472.6
2022-10-23T06:40:02.034Z,472.2
2022-10-23T06:41:03.712Z,472.1
2022-10-23T06:42:05.373Z,471.7
2022-10-23T06:43:07.006Z,471.7
2022-10-23T06:44:08.620Z,471.4
2022-10-23T06:45:10.161Z,471.4
2022-10-23T06:46:12.046Z,471.9
2022-10-23T06:47:14.029Z,471.5
2022-10-23T06:48:15.727Z,471.2
2022-10-23T06:49:17.271Z,471.4
2022-10-23T06:50:18.813Z,471.7
2022-10-23T06:51:20.476Z,471.6
2022-10-23T06:52:48.326Z,471.9
2022-10-23T06:53:49.931Z,471.7
2022-10-23T06:54:51.582Z,472.1
2022-10-23T06:55:56.135Z,472
2022-10-23T06:56:57.763Z,472.2
2022-10-23T06:58:02.088Z,472
2022-10-23T06:59:03.747Z,472
2022-10-23T07:00:05.351Z,471.8
2022-10-23T07:01:07.862Z,472.3
2022-10-23T07:02:09.798Z,471.7
2022-10-23T07:03:11.445Z,472.5
2022-10-23T07:04:12.999Z,471.9
2022-10-23T07:05:14.606Z,472
2022-10-23T07:06:16.260Z,472.4
2022-10-23T07:07:17.890Z,471.8
2022-10-23T07:08:19.538Z,471.9
2022-10-23T07:09:21.100Z,472
2022-10-23T07:10:22.783Z,472
2022-10-23T07:11:24.480Z,471.8
2022-10-23T07:12:26.134Z,471.7
2022-10-23T07:13:27.872Z,471.9
2022-10-23T07:14:29.507Z,471.5
2022-10-23T07:15:31.052Z,471.9
2022-10-23T07:16:32.603Z,471.7
2022-10-23T07:17:34.474Z,472.2
2022-10-23T07:18:36.315Z,472.6
2022-10-23T07:19:37.975Z,472.6
2022-10-23T07:20:39.617Z,472.5
2022-10-23T07:21:41.206Z,472.8
2022-10-23T07:22:44.355Z,472.4
2022-10-23T07:23:46.092Z,472.5
2022-10-23T07:24:47.624Z,472.1
2022-10-23T07:25:49.159Z,472.3
2022-10-23T07:27:52.318Z,472.3
2022-10-23T07:28:54.004Z,472.4
2022-10-23T07:29:55.653Z,472.2
2022-10-23T07:30:57.180Z,472.4
2022-10-23T07:31:58.785Z,472.3
2022-10-23T07:33:00.782Z,472.7
2022-10-23T07:34:02.383Z,472.4
2022-10-23T07:35:04.439Z,472.9
2022-10-23T07:36:06.122Z,472.6
2022-10-23T07:37:07.784Z,473.1
2022-10-23T07:38:09.393Z,472.8
2022-10-23T07:39:10.976Z,472.8
2022-10-23T07:40:12.583Z,472.6
2022-10-23T07:41:14.107Z,473.2
2022-10-23T07:42:15.702Z,472.8
2022-10-23T07:43:17.271Z,473.3
2022-10-23T07:44:23.212Z,473.3
2022-10-23T07:45:27.294Z,472.9
2022-10-23T07:46:28.976Z,472.8
2022-10-23T07:47:30.687Z,472.2
2022-10-23T07:48:32.522Z,472.5
2022-10-23T07:49:34.106Z,472.6
2022-10-23T07:50:35.652Z,472.1
2022-10-23T07:51:37.230Z,472.1
2022-10-23T07:52:38.775Z,472.5
2022-10-23T07:53:40.315Z,471.9
2022-10-23T07:54:41.962Z,472.4
2022-10-23T07:55:43.508Z,472.4
2022-10-23T07:56:45.252Z,471.7
2022-10-23T07:57:46.914Z,471.8
2022-10-23T07:58:48.522Z,472.1
2022-10-23T07:59:50.289Z,471.9
2022-10-23T08:00:51.953Z,472.2
2022-10-23T08:01:57.231Z,472.3
2022-10-23T08:02:58.950Z,471.9
2022-10-23T08:04:00.794Z,472.1
2022-10-23T08:05:05.381Z,471.6
2022-10-23T08:06:06.928Z,472.4
2022-10-23T08:07:08.669Z,472.2
2022-10-23T08:08:10.204Z,472.1
2022-10-23T08:09:11.763Z,471.9
2022-10-23T08:10:13.297Z,471.9
2022-10-23T08:11:14.843Z,472.2
2022-10-23T08:12:16.519Z,471.9
2022-10-23T08:13:18.161Z,471.9
2022-10-23T08:14:19.804Z,472.3
2022-10-23T08:15:21.455Z,472.3
2022-10-23T08:16:23.049Z,471.7
2022-10-23T08:17:28.722Z,472.1
2022-10-23T08:18:30.328Z,471.9
2022-10-23T08:19:32.327Z,471.7
2022-10-23T08:20:33.985Z,471.9
2022-10-23T08:21:35.793Z,472
2022-10-23T08:22:37.560Z,472
2022-10-23T08:23:39.187Z,471.6
2022-10-23T08:24:40.740Z,472.1
2022-10-23T08:25:42.431Z,472
2022-10-23T08:26:44.142Z,471.9
2022-10-23T08:27:46.503Z,471.7
2022-10-23T08:28:48.116Z,471.9
2022-10-23T08:29:49.651Z,471.4
2022-10-23T08:30:51.371Z,471.9
2022-10-23T08:31:53.109Z,471.9
2022-10-23T08:32:55.040Z,471.7
2022-10-23T08:33:57.145Z,471.9
2022-10-23T08:34:58.948Z,471.7
2022-10-23T08:36:00.605Z,471.4
2022-10-23T08:37:02.179Z,471.8
2022-10-23T08:38:03.775Z,472.1
2022-10-23T08:39:05.315Z,471.6
2022-10-23T08:40:06.882Z,472.4
2022-10-23T08:41:08.467Z,472.4
2022-10-23T08:43:12.731Z,471.8
2022-10-23T08:44:14.482Z,472.3
2022-10-23T08:45:16.066Z,472.2
2022-10-23T08:46:17.640Z,472.5
2022-10-23T08:47:19.179Z,472.4
2022-10-23T08:48:20.855Z,472.5
2022-10-23T08:49:22.399Z,473
2022-10-23T08:50:24.566Z,472.8
2022-10-23T08:51:26.261Z,473
2022-10-23T08:52:27.827Z,473.1
2022-10-23T08:53:29.379Z,472.9
2022-10-23T08:54:31.038Z,473.1
2022-10-23T08:55:32.580Z,473.2
2022-10-23T08:56:34.128Z,473.2
2022-10-23T08:57:44.130Z,472.7
2022-10-23T08:58:46.183Z,473.5
2022-10-23T08:59:47.829Z,472.6
2022-10-23T09:00:49.837Z,472.9
2022-10-23T09:01:52.643Z,473.2
2022-10-23T09:02:54.755Z,472.5
2022-10-23T09:03:56.347Z,473.1
2022-10-23T09:04:57.887Z,472.8
2022-10-23T09:05:59.877Z,472.8
2022-10-23T09:07:05.143Z,472.3
2022-10-23T09:08:06.847Z,472.4
2022-10-23T09:09:08.393Z,473
2022-10-23T09:10:10.045Z,472.4
2022-10-23T09:11:11.666Z,472.9
2022-10-23T09:12:13.302Z,473
2022-10-23T09:13:14.880Z,472.9
2022-10-23T09:14:16.493Z,472.5
2022-10-23T09:15:18.238Z,472.7
2022-10-23T09:16:19.885Z,472.7
2022-10-23T09:17:21.454Z,472.7
2022-10-23T09:18:23.118Z,472.8
2022-10-23T09:19:24.728Z,473.1
2022-10-23T09:20:26.269Z,473.2
2022-10-23T09:21:28.074Z,473
2022-10-23T09:22:29.630Z,473.1
2022-10-23T09:23:31.237Z,473.1
2022-10-23T09:24:32.943Z,473.5
2022-10-23T09:25:34.572Z,473
2022-10-23T09:26:36.266Z,473.9
2022-10-23T09:27:37.923Z,473.8
2022-10-23T09:28:39.609Z,474.3
2022-10-23T09:29:41.249Z,473.5
2022-10-23T09:30:43.034Z,473.9
2022-10-23T09:31:44.603Z,474.2
2022-10-23T09:32:46.238Z,474.1
2022-10-23T09:33:47.980Z,474.3
2022-10-23T09:34:49.579Z,474.2
2022-10-23T09:35:51.166Z,474.9
2022-10-23T09:36:53.235Z,474.8
2022-10-23T09:37:54.936Z,474.8
2022-10-23T09:38:56.698Z,474.7
2022-10-23T09:39:58.378Z,474.8
2022-10-23T09:40:59.912Z,474.7
2022-10-23T09:42:01.533Z,475.1
2022-10-23T09:43:03.291Z,475.1
2022-10-23T09:44:04.952Z,475
2022-10-23T09:45:06.491Z,474.9
2022-10-23T09:46:08.210Z,474.5
2022-10-23T09:47:09.757Z,474.9
2022-10-23T09:48:11.279Z,474.2
2022-10-23T09:49:13.080Z,474.6
2022-10-23T09:50:14.788Z,474.6
2022-10-23T09:51:16.338Z,474
2022-10-23T09:52:18.207Z,474.1
2022-10-23T09:53:19.797Z,474.3
2022-10-23T09:54:21.612Z,474.5
2022-10-23T09:55:23.201Z,474.4
2022-10-23T09:56:25.517Z,474.6
2022-10-23T09:57:27.234Z,475
2022-10-23T09:58:28.902Z,474.3
2022-10-23T09:59:30.557Z,474.5
2022-10-23T10:00:32.203Z,474.2
2022-10-23T10:01:34.662Z,474.7
2022-10-23T10:02:36.251Z,474.2
2022-10-23T10:03:37.902Z,474.6
2022-10-23T10:04:39.770Z,474.7
2022-10-23T10:05:41.389Z,475.3
2022-10-23T10:06:43.265Z,475.1
2022-10-23T10:07:46.209Z,475.1
2022-10-23T10:08:47.988Z,475.3
2022-10-23T10:09:49.649Z,475.1
2022-10-23T10:10:51.183Z,475.3
2022-10-23T10:11:52.693Z,475.8
2022-10-23T10:12:54.402Z,475.9
2022-10-23T10:13:56.127Z,475.7
2022-10-23T10:14:57.754Z,476.1
2022-10-23T10:15:59.296Z,475.9
2022-10-23T10:17:00.916Z,476
2022-10-23T10:18:02.457Z,476.1
2022-10-23T10:19:04.271Z,476.1
2022-10-23T10:20:07.658Z,475.4
2022-10-23T10:21:09.196Z,476
2022-10-23T10:22:10.734Z,476.1
2022-10-23T10:23:12.594Z,476
2022-10-23T10:24:14.174Z,476.1
2022-10-23T10:25:15.878Z,476.2
2022-10-23T10:26:17.729Z,476.3
2022-10-23T10:27:19.449Z,476.6
2022-10-23T10:28:21.227Z,476.4
2022-10-23T10:29:22.798Z,476.4
2022-10-23T10:30:24.426Z,476.9
2022-10-23T10:31:26.228Z,476.8
2022-10-23T10:32:27.813Z,476.8
2022-10-23T10:33:29.466Z,476.7
2022-10-23T10:34:31.034Z,476.7
2022-10-23T10:35:32.709Z,476.8
2022-10-23T10:36:34.376Z,477
2022-10-23T10:37:35.912Z,477.2
2022-10-23T10:38:37.776Z,477.4
2022-10-23T10:39:39.393Z,476.7
2022-10-23T10:40:41.055Z,477.2
2022-10-23T10:41:42.602Z,477.1
2022-10-23T10:42:44.325Z,477.3
2022-10-23T10:43:45.867Z,477.5
2022-10-23T10:44:47.410Z,477.2
2022-10-23T10:45:49.085Z,477.7
2022-10-23T10:46:50.757Z,477.7
2022-10-23T10:47:52.308Z,477
2022-10-23T10:48:53.853Z,477.1
2022-10-23T10:49:55.435Z,477
2022-10-23T10:50:57.062Z,476.7
2022-10-23T10:51:58.728Z,476.8
2022-10-23T10:53:00.285Z,476.9
2022-10-23T10:54:02.148Z,476.9
2022-10-23T10:55:03.903Z,477.1
2022-10-23T10:56:05.746Z,476.7
2022-10-23T10:57:07.321Z,476.7
2022-10-23T10:58:08.952Z,477
2022-10-23T10:59:10.471Z,477.4
2022-10-23T11:00:12.071Z,476.8
2022-10-23T11:01:14.401Z,477.7
2022-10-23T11:02:16.751Z,478.1
2022-10-23T11:03:18.581Z,477.9
2022-10-23T11:04:20.127Z,477.7
2022-10-23T11:05:21.666Z,478.2
2022-10-23T11:06:23.391Z,478
2022-10-23T11:07:24.924Z,478.7
2022-10-23T11:08:26.620Z,478.6
2022-10-23T11:09:28.557Z,478.9
2022-10-23T11:10:30.218Z,479
2022-10-23T11:11:31.859Z,479.1
2022-10-23T11:12:33.504Z,479.2
2022-10-23T11:13:35.099Z,479.5
2022-10-23T11:14:36.697Z,479.8
2022-10-23T11:15:38.941Z,479.4
2022-10-23T11:16:41.194Z,480.2
2022-10-23T11:17:44.337Z,479.8
2022-10-23T11:18:46.138Z,479.7
2022-10-23T11:19:47.811Z,480
2022-10-23T11:20:49.343Z,480
2022-10-23T11:21:50.873Z,480.5
2022-10-23T11:22:52.518Z,480.4
2022-10-23T11:23:54.236Z,480.3
2022-10-23T11:24:58.838Z,480.8
2022-10-23T11:26:00.593Z,481
2022-10-23T11:27:02.234Z,480.6
2022-10-23T11:28:11.068Z,480.7
2022-10-23T11:29:12.600Z,481
2022-10-23T11:30:14.559Z,481
2022-10-23T11:31:16.220Z,481.3
2022-10-23T11:32:17.750Z,481.3
2022-10-23T11:33:19.379Z,481.2
2022-10-23T11:34:20.929Z,481.2
2022-10-23T11:35:22.474Z,481.3
2022-10-23T11:36:24.149Z,480.9
2022-10-23T11:37:25.770Z,481.2
2022-10-23T11:38:27.333Z,481.4
2022-10-23T11:39:28.875Z,481.3
2022-10-23T11:40:30.716Z,481.4
2022-10-23T11:41:32.368Z,481.6
2022-10-23T11:42:34.014Z,481.7
2022-10-23T11:43:35.663Z,481.8
2022-10-23T11:44:37.167Z,482.1
2022-10-23T11:45:38.747Z,482.3
2022-10-23T11:46:40.405Z,482.3
2022-10-23T11:47:42.037Z,482.2
2022-10-23T11:48:43.685Z,482.2
2022-10-23T11:49:48.020Z,482.2
2022-10-23T11:50:49.597Z,482.6
2022-10-23T11:51:51.131Z,481.9
2022-10-23T11:53:16.682Z,482.2
2022-10-23T11:54:18.727Z,482.2
2022-10-23T11:55:20.375Z,482.1
2022-10-23T11:56:22.223Z,482.2
2022-10-23T11:57:24.085Z,482.3
2022-10-23T11:58:25.826Z,482.2
2022-10-23T11:59:27.356Z,482.1
2022-10-23T12:00:28.883Z,482
2022-10-23T12:01:31.278Z,482.2
2022-10-23T12:02:33.502Z,482
2022-10-23T12:03:35.180Z,482.4
2022-10-23T12:04:36.713Z,481.9
2022-10-23T12:05:38.367Z,482.1
2022-10-23T12:06:39.977Z,482.3
2022-10-23T12:07:43.454Z,482.7
2022-10-23T12:08:45.165Z,482.5
2022-10-23T12:09:46.791Z,482.7
2022-10-23T12:10:48.331Z,482.2
2022-10-23T12:11:53.008Z,482.9
2022-10-23T12:12:54.724Z,482.9
2022-10-23T12:13:56.295Z,483.1
2022-10-23T12:14:57.850Z,483.3
2022-10-23T12:16:01.760Z,483.2
2022-10-23T12:17:03.507Z,483.5
2022-10-23T12:18:05.296Z,483.3
2022-10-23T12:19:06.843Z,483.8
2022-10-23T12:20:08.439Z,483.3
2022-10-23T12:21:09.979Z,483.3
2022-10-23T12:22:11.655Z,483.2
2022-10-23T12:23:13.186Z,483
2022-10-23T12:24:14.720Z,483.2
2022-10-23T12:25:16.386Z,483.1
2022-10-23T12:26:18.066Z,483.5
2022-10-23T12:27:19.867Z,483.4
2022-10-23T12:28:21.553Z,483.2
2022-10-23T12:29:26.374Z,483
2022-10-23T12:30:28.026Z,483.8
2022-10-23T12:31:29.636Z,483.8
2022-10-23T12:32:31.281Z,483.7
2022-10-23T12:33:32.810Z,484
2022-10-23T12:34:34.355Z,483.7
2022-10-23T12:35:36.011Z,483.8
2022-10-23T12:36:37.655Z,483.6
2022-10-23T12:37:39.287Z,483.7
2022-10-23T12:38:41.065Z,483.6
2022-10-23T12:39:42.606Z,483.9
2022-10-23T12:40:44.136Z,483.8
2022-10-23T12:41:45.949Z,484
2022-10-23T12:42:48.028Z,483.7
2022-10-23T12:43:49.664Z,483.9
2022-10-23T12:44:51.277Z,483.8
2022-10-23T12:45:52.980Z,483.9
2022-10-23T12:46:54.616Z,484.2
2022-10-23T12:47:56.267Z,483.6
2022-10-23T12:48:57.937Z,483.5
2022-10-23T12:49:59.556Z,483.8
2022-10-23T12:51:01.375Z,483.1
2022-10-23T12:52:03.068Z,483.5
2022-10-23T12:53:04.966Z,483.6
2022-10-23T12:54:06.789Z,483.6
2022-10-23T12:55:08.380Z,482.9
2022-10-23T12:56:10.084Z,483.1
2022-10-23T12:57:11.745Z,483.1
2022-10-23T12:58:13.528Z,483
2022-10-23T12:59:15.286Z,482.8
2022-10-23T13:00:16.821Z,482.9
2022-10-23T13:01:19.191Z,482.7
2022-10-23T13:02:21.713Z,482.8
2022-10-23T13:03:23.351Z,482.5
2022-10-23T13:04:27.916Z,482.8
2022-10-23T13:05:29.627Z,482.8
2022-10-23T13:06:31.304Z,483
2022-10-23T13:07:32.842Z,483
2022-10-23T13:08:34.576Z,483
2022-10-23T13:09:36.102Z,482.9
2022-10-23T13:10:37.638Z,482.8
2022-10-23T13:11:39.326Z,483.1
2022-10-23T13:12:41.353Z,482.7
2022-10-23T13:13:43.220Z,483.2
2022-10-23T13:14:45.100Z,482.9
2022-10-23T13:15:46.741Z,483.2
2022-10-23T13:16:48.276Z,482.8
2022-10-23T13:17:49.984Z,482.6
2022-10-23T13:18:51.562Z,482.9
2022-10-23T13:19:53.110Z,482.8
2022-10-23T13:20:54.960Z,483.1
2022-10-23T13:21:56.640Z,482.8
2022-10-23T13:23:01.565Z,483.1
2022-10-23T13:24:03.130Z,483.3
2022-10-23T13:25:04.805Z,483.3
2022-10-23T13:26:06.422Z,483.6
2022-10-23T13:27:07.962Z,483.6
2022-10-23T13:28:09.616Z,483.1